Sheboygan, Wisconsin
Current Conditions -  °F | °C
As of 7:08 AM on Wednesday 22 Oct 2014 (Local Time) from KSBM Reporting Station
Broken Clouds Broken Clouds  
Wind Chill: 29°   Ceiling: 2200
Heat Index: 29°   Visibility: 10mi
Dew Point: 28°   Wind: 0mph
Humidity: 96%   Direction: NA
Pressure: 30.35"   Gusts: NA
Location:  43.76°N, 87.72°W
Report Text: KSBM 221208Z AUTO 00000KT 10SM BKN022 M02/M02 A3035 RMK AO2 T10171022
Loading
Personal Weather Stations






























Interactive Weather Map
Tropical Storm Tracking
New forecast layout! Learn more

10-Day Weather Forecast

Advertisements
Track Severe Weather on mobile